createdAt,value
2019-04-16T00:02:21.876Z,6.90
2019-04-16T00:05:09.846Z,6.90
2019-04-16T00:07:57.160Z,6.90
2019-04-16T00:10:43.967Z,6.90
2019-04-16T00:13:33.601Z,6.80
2019-04-16T00:16:02.123Z,6.80
2019-04-16T00:18:29.227Z,6.70
2019-04-16T00:21:18.622Z,6.60
2019-04-16T00:24:18.555Z,6.60
2019-04-16T00:26:47.254Z,6.70
2019-04-16T00:29:14.293Z,6.60
2019-04-16T00:31:42.183Z,6.60
2019-04-16T00:34:13.432Z,6.50
2019-04-16T00:36:38.410Z,6.60
2019-04-16T00:39:05.843Z,6.50
2019-04-16T00:41:33.505Z,6.50
2019-04-16T00:44:00.439Z,6.40
2019-04-16T00:46:27.479Z,6.50
2019-04-16T00:48:54.509Z,6.50
2019-04-16T00:51:21.465Z,6.50
2019-04-16T00:53:48.413Z,6.50
2019-04-16T00:56:16.225Z,6.40
2019-04-16T00:58:43.812Z,6.30
2019-04-16T01:01:11.103Z,6.30
2019-04-16T01:03:38.347Z,6.10
2019-04-16T01:06:07.962Z,6.10
2019-04-16T01:08:34.573Z,5.90
2019-04-16T01:11:01.529Z,5.60
2019-04-16T01:13:28.558Z,5.30
2019-04-16T01:15:55.858Z,5.00
2019-04-16T01:18:22.903Z,4.80
2019-04-16T01:20:49.931Z,4.60
2019-04-16T01:23:17.834Z,4.50
2019-04-16T01:25:45.510Z,4.30
2019-04-16T01:28:15.240Z,4.20
2019-04-16T01:31:08.385Z,4.20
2019-04-16T01:33:57.993Z,4.10
2019-04-16T01:36:34.610Z,4.10
2019-04-16T01:39:15.912Z,4.00
2019-04-16T01:41:34.114Z,4.00
2019-04-16T01:44:01.253Z,4.00
2019-04-16T01:46:32.579Z,3.90
2019-04-16T01:48:58.309Z,4.10
2019-04-16T01:51:25.505Z,4.10
2019-04-16T01:53:53.036Z,4.10
2019-04-16T01:56:19.990Z,3.90
2019-04-16T01:58:47.030Z,3.90
2019-04-16T02:01:13.962Z,3.70
2019-04-16T02:03:40.905Z,3.70
2019-04-16T02:06:08.404Z,3.70
2019-04-16T02:08:35.450Z,3.60
2019-04-16T02:11:02.881Z,3.50
2019-04-16T02:13:30.234Z,3.50
2019-04-16T02:15:57.345Z,3.60
2019-04-16T02:18:24.489Z,3.70
2019-04-16T02:20:51.510Z,3.70
2019-04-16T02:23:18.802Z,3.80
2019-04-16T02:25:48.500Z,3.90
2019-04-16T02:28:15.021Z,3.90
2019-04-16T02:30:42.049Z,3.80
2019-04-16T02:33:08.999Z,3.70
2019-04-16T02:35:36.121Z,3.80
2019-04-16T02:38:11.120Z,3.80
2019-04-16T02:40:32.293Z,3.80
2019-04-16T02:43:04.206Z,3.70
2019-04-16T02:45:28.455Z,3.70
2019-04-16T02:47:55.395Z,3.70
2019-04-16T02:50:32.407Z,3.60
2019-04-16T02:53:05.842Z,3.60
2019-04-16T02:55:50.724Z,3.70
2019-04-16T02:58:22.399Z,3.70
2019-04-16T03:01:24.166Z,3.60
2019-04-16T03:03:56.819Z,3.50
2019-04-16T03:06:23.963Z,3.40
2019-04-16T03:08:51.109Z,3.40
2019-04-16T03:11:18.275Z,3.40
2019-04-16T03:13:45.418Z,3.30
2019-04-16T03:16:37.636Z,3.10
2019-04-16T03:19:06.922Z,3.10
2019-04-16T03:21:34.118Z,3.00
2019-04-16T03:24:01.157Z,3.00
2019-04-16T03:26:28.205Z,3.10
2019-04-16T03:28:55.693Z,3.20
2019-04-16T03:31:24.215Z,3.20
2019-04-16T03:33:51.457Z,3.20
2019-04-16T03:36:18.678Z,3.20
2019-04-16T03:38:45.741Z,3.10
2019-04-16T03:41:13.143Z,3.00
2019-04-16T03:43:40.170Z,2.90
2019-04-16T03:46:12.099Z,2.80
2019-04-16T03:48:36.453Z,2.70
2019-04-16T03:51:04.747Z,2.60
2019-04-16T03:53:32.306Z,2.50
2019-04-16T03:55:59.354Z,2.40
2019-04-16T03:58:27.295Z,2.30
2019-04-16T04:00:54.326Z,2.20
2019-04-16T04:03:25.898Z,2.20
2019-04-16T04:05:56.378Z,2.20
2019-04-16T04:08:24.034Z,2.20
2019-04-16T04:10:51.406Z,2.10
2019-04-16T04:13:19.196Z,2.10
2019-04-16T04:15:46.226Z,2.00
2019-04-16T04:18:13.282Z,2.00
2019-04-16T04:20:40.478Z,1.90
2019-04-16T04:23:07.410Z,1.90
2019-04-16T04:25:36.377Z,1.90
2019-04-16T04:28:03.421Z,1.90
2019-04-16T04:30:30.462Z,1.80
2019-04-16T04:32:57.502Z,1.80
2019-04-16T04:35:24.637Z,1.80
2019-04-16T04:37:51.918Z,1.80
2019-04-16T04:40:18.971Z,1.80
2019-04-16T04:42:46.078Z,1.90
2019-04-16T04:45:13.210Z,1.90
2019-04-16T04:47:40.402Z,1.90
2019-04-16T04:50:08.637Z,1.90
2019-04-16T04:52:35.686Z,2.00
2019-04-16T04:55:03.073Z,2.00
2019-04-16T04:57:31.883Z,2.10
2019-04-16T04:59:59.193Z,2.20
2019-04-16T05:02:26.113Z,2.20
2019-04-16T05:05:11.415Z,2.40
2019-04-16T05:07:38.886Z,2.50
2019-04-16T05:10:07.550Z,2.60
2019-04-16T05:12:35.293Z,2.80
2019-04-16T05:15:03.938Z,2.90
2019-04-16T05:17:31.022Z,3.00
2019-04-16T05:19:57.970Z,3.20
2019-04-16T05:22:25.106Z,3.30
2019-04-16T05:24:52.045Z,3.40
2019-04-16T05:27:19.090Z,3.50
2019-04-16T05:29:48.339Z,3.60
2019-04-16T05:32:15.307Z,3.80
2019-04-16T05:34:42.675Z,3.90
2019-04-16T05:37:09.975Z,4.00
2019-04-16T05:39:37.387Z,4.20
2019-04-16T05:42:04.524Z,4.40
2019-04-16T05:44:34.005Z,4.50
2019-04-16T05:47:00.694Z,4.70
2019-04-16T05:49:27.854Z,5.00
2019-04-16T05:51:55.006Z,5.60
2019-04-16T05:54:44.305Z,6.60
2019-04-16T05:57:13.537Z,7.80
2019-04-16T05:59:40.770Z,9.40
2019-04-16T06:02:18.218Z,10.50
2019-04-16T06:04:44.190Z,11.40
2019-04-16T06:07:11.349Z,11.90
2019-04-16T06:09:41.382Z,12.80
2019-04-16T06:12:08.748Z,13.40
2019-04-16T06:14:54.230Z,13.80
2019-04-16T06:17:43.600Z,13.00
2019-04-16T06:20:33.208Z,11.90
2019-04-16T06:23:14.346Z,11.80
2019-04-16T06:25:47.058Z,12.30
2019-04-16T06:28:24.712Z,12.50
2019-04-16T06:31:09.771Z,13.80
2019-04-16T06:33:41.803Z,14.60
2019-04-16T06:36:31.238Z,15.20
2019-04-16T06:39:20.258Z,15.40
2019-04-16T06:42:00.600Z,14.80
2019-04-16T06:44:30.565Z,14.20
2019-04-16T06:47:03.651Z,15.90
2019-04-16T06:49:40.323Z,16.10
2019-04-16T06:52:17.384Z,16.80
2019-04-16T06:55:04.519Z,16.40
2019-04-16T06:57:46.122Z,16.20
2019-04-16T07:00:33.565Z,15.60
2019-04-16T07:03:27.376Z,16.30
2019-04-16T07:06:20.899Z,16.20
2019-04-16T07:09:06.431Z,15.90
2019-04-16T07:11:35.741Z,14.60
2019-04-16T07:14:02.982Z,15.00
2019-04-16T07:16:30.008Z,14.50
2019-04-16T07:18:57.066Z,15.40
2019-04-16T07:21:24.038Z,15.30
2019-04-16T07:23:56.865Z,16.40
2019-04-16T07:26:19.938Z,17.30
2019-04-16T07:28:58.487Z,16.80
2019-04-16T07:31:34.525Z,15.80
2019-04-16T07:34:07.749Z,16.70
2019-04-16T07:36:56.932Z,17.20
2019-04-16T07:39:46.552Z,17.50
2019-04-16T07:42:22.085Z,15.80
2019-04-16T07:45:12.454Z,17.30
2019-04-16T07:48:10.231Z,16.80
2019-04-16T07:50:56.910Z,16.50
2019-04-16T07:53:41.617Z,17.30
2019-04-16T07:56:14.125Z,16.20
2019-04-16T07:58:41.069Z,16.60
2019-04-16T08:01:11.156Z,17.40
2019-04-16T08:03:37.075Z,19.30
2019-04-16T08:06:04.353Z,18.80
2019-04-16T08:08:31.487Z,19.60
2019-04-16T08:10:59.345Z,18.60
2019-04-16T08:13:27.670Z,18.50
2019-04-16T08:15:56.731Z,19.10
2019-04-16T08:18:23.729Z,18.30
2019-04-16T08:21:01.109Z,18.40
2019-04-16T08:23:40.303Z,18.90
2019-04-16T08:26:12.866Z,19.50
2019-04-16T08:28:37.819Z,18.60
2019-04-16T08:31:11.022Z,17.50
2019-04-16T08:33:35.791Z,18.20
2019-04-16T08:36:03.115Z,19.50
2019-04-16T08:38:34.051Z,18.10
2019-04-16T08:40:59.446Z,20.10
2019-04-16T08:43:29.678Z,21.30
2019-04-16T08:45:55.654Z,22.20
2019-04-16T08:48:23.810Z,22.20
2019-04-16T08:53:18.040Z,24.50
2019-04-16T08:58:12.965Z,26.50
2019-04-16T09:00:40.344Z,25.60
2019-04-16T09:03:07.311Z,22.00
2019-04-16T09:05:34.543Z,22.90
2019-04-16T09:08:26.962Z,22.90
2019-04-16T09:10:54.119Z,21.70
2019-04-16T09:13:23.983Z,22.50
2019-04-16T09:15:51.103Z,23.60
2019-04-16T09:18:24.883Z,23.30
2019-04-16T09:20:52.110Z,24.00
2019-04-16T09:23:19.103Z,24.60
2019-04-16T09:26:14.123Z,25.20
2019-04-16T09:32:07.347Z,27.20
2019-04-16T09:34:52.678Z,26.80
2019-04-16T09:37:35.759Z,26.80
2019-04-16T09:40:21.553Z,26.40
2019-04-16T09:42:49.135Z,23.10
2019-04-16T09:45:18.487Z,23.90
2019-04-16T09:47:45.761Z,25.80
2019-04-16T09:50:13.458Z,28.90
2019-04-16T09:52:40.523Z,28.60
2019-04-16T09:55:07.839Z,29.60
2019-04-16T09:57:34.831Z,26.60
2019-04-16T10:00:08.237Z,26.90
2019-04-16T10:02:35.828Z,27.00
2019-04-16T10:05:04.226Z,28.10
2019-04-16T10:07:31.397Z,26.70
2019-04-16T10:09:59.126Z,24.40
2019-04-16T10:12:29.336Z,24.30
2019-04-16T10:14:56.658Z,24.30
2019-04-16T10:17:24.104Z,24.20
2019-04-16T10:19:51.200Z,22.50
2019-04-16T10:22:18.388Z,24.60
2019-04-16T10:25:00.367Z,26.50
2019-04-16T10:27:32.487Z,23.90
2019-04-16T10:29:59.750Z,24.80
2019-04-16T10:32:27.662Z,25.10
2019-04-16T10:34:54.890Z,24.50
2019-04-16T10:37:22.213Z,23.90
2019-04-16T10:40:05.054Z,24.00
2019-04-16T10:42:50.332Z,23.90
2019-04-16T10:45:52.183Z,24.20
2019-04-16T10:48:47.638Z,25.00
2019-04-16T10:51:33.068Z,25.90
2019-04-16T10:54:13.622Z,26.60
2019-04-16T10:57:03.199Z,27.60
2019-04-16T10:59:47.610Z,25.70
2019-04-16T11:02:43.063Z,25.50
2019-04-16T11:05:19.190Z,25.80
2019-04-16T11:07:46.285Z,26.70
2019-04-16T11:10:14.621Z,26.40
2019-04-16T11:12:42.766Z,27.00
2019-04-16T11:15:11.033Z,27.80
2019-04-16T11:17:37.986Z,25.40
2019-04-16T11:20:06.109Z,25.40
2019-04-16T11:22:33.190Z,24.90
2019-04-16T11:25:00.507Z,24.70
2019-04-16T11:27:27.460Z,26.30
2019-04-16T11:29:54.646Z,27.40
2019-04-16T11:32:24.471Z,25.10
2019-04-16T11:34:52.608Z,23.80
2019-04-16T11:37:19.735Z,23.40
2019-04-16T11:39:47.168Z,21.40
2019-04-16T11:42:14.446Z,19.90
2019-04-16T11:44:41.784Z,20.40
2019-04-16T11:47:09.005Z,21.70
2019-04-16T11:49:36.173Z,23.60
2019-04-16T11:52:03.841Z,24.20
2019-04-16T11:54:30.976Z,23.30
2019-04-16T11:56:59.510Z,25.30
2019-04-16T11:59:27.482Z,24.80
2019-04-16T12:02:14.448Z,25.20
2019-04-16T12:05:03.871Z,25.50
2019-04-16T12:07:39.649Z,26.70
2019-04-16T12:10:31.157Z,26.00
2019-04-16T12:13:16.261Z,25.70
2019-04-16T12:16:02.038Z,27.70
2019-04-16T12:18:48.797Z,27.50
2019-04-16T12:21:35.675Z,27.50
2019-04-16T12:24:22.478Z,26.40
2019-04-16T12:27:05.248Z,27.20
2019-04-16T12:29:40.163Z,28.30
2019-04-16T12:32:27.031Z,26.80
2019-04-16T12:35:34.688Z,24.60
2019-04-16T12:38:27.751Z,24.70
2019-04-16T12:41:17.228Z,25.20
2019-04-16T12:43:51.118Z,25.10
2019-04-16T12:46:39.035Z,24.70
2019-04-16T12:49:28.649Z,25.50
2019-04-16T12:52:17.360Z,25.40
2019-04-16T12:54:59.244Z,26.00
2019-04-16T12:57:31.609Z,26.20
2019-04-16T13:00:06.239Z,26.90
2019-04-16T13:02:54.014Z,26.60
2019-04-16T13:05:27.194Z,28.10
2019-04-16T13:08:13.769Z,27.70
2019-04-16T13:10:48.123Z,28.20
2019-04-16T13:13:40.642Z,26.30
2019-04-16T13:16:24.257Z,27.40
2019-04-16T13:19:11.090Z,27.80
2019-04-16T13:21:44.781Z,26.00
2019-04-16T13:24:16.821Z,27.90
2019-04-16T13:26:47.198Z,29.60
2019-04-16T13:29:19.993Z,30.20
2019-04-16T13:31:47.139Z,29.30
2019-04-16T13:34:18.352Z,29.30
2019-04-16T13:36:43.063Z,29.30
2019-04-16T13:39:23.899Z,28.20
2019-04-16T13:41:50.939Z,28.20
2019-04-16T13:44:19.066Z,27.90
2019-04-16T13:46:46.298Z,27.90
2019-04-16T13:49:31.683Z,28.30
2019-04-16T13:52:02.118Z,28.60
2019-04-16T13:54:42.338Z,28.90
2019-04-16T13:57:12.930Z,29.80
2019-04-16T14:00:04.686Z,29.70
2019-04-16T14:02:51.224Z,29.40
2019-04-16T14:05:18.754Z,30.00
2019-04-16T14:07:46.703Z,31.70
2019-04-16T14:10:13.942Z,30.30
2019-04-16T14:12:44.069Z,28.80
2019-04-16T14:15:11.515Z,27.60
2019-04-16T14:17:51.744Z,28.30
2019-04-16T14:20:08.599Z,26.90
2019-04-16T14:22:37.295Z,25.90
2019-04-16T14:25:05.982Z,26.80
2019-04-16T14:27:33.371Z,27.10
2019-04-16T14:30:00.892Z,26.90
2019-04-16T14:32:27.976Z,27.10
2019-04-16T14:34:59.478Z,27.80
2019-04-16T14:37:26.718Z,27.90
2019-04-16T14:40:02.721Z,27.90
2019-04-16T14:42:30.761Z,27.80
2019-04-16T14:45:07.629Z,27.40
2019-04-16T14:47:36.119Z,28.20
2019-04-16T14:50:01.874Z,27.80
2019-04-16T14:52:29.022Z,28.20
2019-04-16T14:55:13.356Z,27.80
2019-04-16T14:57:58.438Z,26.90
2019-04-16T15:00:46.723Z,26.40
2019-04-16T15:03:36.115Z,25.80
2019-04-16T15:06:19.690Z,24.50
2019-04-16T15:09:07.035Z,23.40
2019-04-16T15:11:58.285Z,22.20
2019-04-16T15:14:45.206Z,21.50
2019-04-16T15:17:18.186Z,21.30
2019-04-16T15:20:13.667Z,21.60
2019-04-16T15:22:52.475Z,21.80
2019-04-16T15:25:24.085Z,21.80
2019-04-16T15:28:10.608Z,21.70
2019-04-16T15:30:50.293Z,21.60
2019-04-16T15:33:55.774Z,21.30
2019-04-16T15:36:53.321Z,21.20
2019-04-16T15:39:28.814Z,21.10
2019-04-16T15:42:16.143Z,21.10
2019-04-16T15:44:52.757Z,20.90
2019-04-16T15:47:42.855Z,20.50
2019-04-16T15:50:28.666Z,20.40
2019-04-16T15:53:14.167Z,20.30
2019-04-16T15:55:47.480Z,20.20
2019-04-16T15:58:32.557Z,20.20
2019-04-16T16:01:22.692Z,20.10
2019-04-16T16:04:08.055Z,20.20
2019-04-16T16:06:39.825Z,19.90
2019-04-16T16:09:29.454Z,19.80
2019-04-16T16:12:09.889Z,19.90
2019-04-16T16:14:38.732Z,19.90
2019-04-16T16:17:05.126Z,19.60
2019-04-16T16:19:32.327Z,19.70
2019-04-16T16:22:02.985Z,19.40
2019-04-16T16:24:30.700Z,19.40
2019-04-16T16:26:59.806Z,19.30
2019-04-16T16:29:32.845Z,19.10
2019-04-16T16:31:59.830Z,19.00
2019-04-16T16:34:26.891Z,19.00
2019-04-16T16:36:54.397Z,19.00
2019-04-16T16:39:21.815Z,18.90
2019-04-16T16:41:48.951Z,18.60
2019-04-16T16:44:16.023Z,18.50
2019-04-16T16:47:01.080Z,18.50
2019-04-16T16:49:28.593Z,18.40
2019-04-16T16:52:13.932Z,18.10
2019-04-16T16:54:41.552Z,18.00
2019-04-16T16:57:18.903Z,17.80
2019-04-16T16:59:56.414Z,17.60
2019-04-16T17:02:31.539Z,17.50
2019-04-16T17:07:25.986Z,17.30
2019-04-16T17:09:53.031Z,17.20
2019-04-16T17:12:20.157Z,17.10
2019-04-16T17:14:47.310Z,17.00
2019-04-16T17:17:15.225Z,16.90
2019-04-16T17:22:09.815Z,16.60
2019-04-16T17:24:36.869Z,16.50
2019-04-16T17:27:04.606Z,16.40
2019-04-16T17:29:31.855Z,16.30
2019-04-16T17:31:59.293Z,16.10
2019-04-16T17:34:26.449Z,16.00
2019-04-16T17:36:53.656Z,15.90
2019-04-16T17:39:42.288Z,15.80
2019-04-16T17:42:07.737Z,15.80
2019-04-16T17:44:45.550Z,15.70
2019-04-16T17:47:32.290Z,15.50
2019-04-16T17:50:23.683Z,15.40
2019-04-16T17:53:08.954Z,15.30
2019-04-16T17:56:07.499Z,15.20
2019-04-16T17:58:40.795Z,15.00
2019-04-16T18:01:30.556Z,14.70
2019-04-16T18:04:15.933Z,14.60
2019-04-16T18:07:20.639Z,14.40
2019-04-16T18:10:00.139Z,14.30
2019-04-16T18:12:36.315Z,14.20
2019-04-16T18:15:10.386Z,14.20
2019-04-16T18:17:47.226Z,14.00
2019-04-16T18:20:32.552Z,14.10
2019-04-16T18:23:10.800Z,14.00
2019-04-16T18:25:57.397Z,13.90
2019-04-16T18:28:29.388Z,13.90
2019-04-16T18:31:01.144Z,13.90
2019-04-16T18:33:47.727Z,13.90
2019-04-16T18:36:20.250Z,13.80
2019-04-16T18:39:05.894Z,13.80
2019-04-16T18:42:00.799Z,13.70
2019-04-16T18:44:46.082Z,13.50
2019-04-16T18:47:44.620Z,13.30
2019-04-16T18:50:16.316Z,13.00
2019-04-16T18:52:44.471Z,12.80
2019-04-16T18:55:11.698Z,12.90
2019-04-16T18:57:41.422Z,12.90
2019-04-16T19:00:28.697Z,13.00
2019-04-16T19:02:57.365Z,12.90
2019-04-16T19:05:24.773Z,12.80
2019-04-16T19:07:52.536Z,12.70
2019-04-16T19:10:19.792Z,12.50
2019-04-16T19:12:47.085Z,12.30
2019-04-16T19:15:14.343Z,12.20
2019-04-16T19:17:41.315Z,12.00
2019-04-16T19:20:08.643Z,11.90
2019-04-16T19:25:04.041Z,11.70
2019-04-16T19:27:31.856Z,11.60
2019-04-16T19:29:59.050Z,11.50
2019-04-16T19:32:27.809Z,11.40
2019-04-16T19:35:08.190Z,11.20
2019-04-16T19:37:25.263Z,11.40
2019-04-16T19:39:52.432Z,11.20
2019-04-16T19:42:19.626Z,11.20
2019-04-16T19:44:49.958Z,11.20
2019-04-16T19:47:17.522Z,11.10
2019-04-16T19:50:13.248Z,10.90
2019-04-16T19:52:45.534Z,10.80
2019-04-16T19:55:13.165Z,10.60
2019-04-16T19:57:40.335Z,10.50
2019-04-16T20:00:07.830Z,10.40
2019-04-16T20:02:37.333Z,10.50
2019-04-16T20:05:04.903Z,10.50
2019-04-16T20:07:33.654Z,10.60
2019-04-16T20:10:01.269Z,10.80
2019-04-16T20:12:30.138Z,10.70
2019-04-16T20:14:57.635Z,10.60
2019-04-16T20:17:24.816Z,10.60
2019-04-16T20:19:58.041Z,10.50
2019-04-16T20:22:27.434Z,10.20
2019-04-16T20:24:58.026Z,10.00
2019-04-16T20:27:25.666Z,9.80
2019-04-16T20:29:53.254Z,9.60
2019-04-16T20:32:20.556Z,9.50
2019-04-16T20:34:47.944Z,9.30
2019-04-16T20:37:14.929Z,9.20
2019-04-16T20:39:42.090Z,9.10
2019-04-16T20:42:09.362Z,9.00
2019-04-16T20:44:36.546Z,9.00
2019-04-16T20:47:08.001Z,8.90
2019-04-16T20:49:33.283Z,8.90
2019-04-16T20:52:02.222Z,8.80
2019-04-16T20:54:30.045Z,8.80
2019-04-16T20:56:57.247Z,8.70
2019-04-16T20:59:24.318Z,8.60
2019-04-16T21:01:51.729Z,8.50
2019-04-16T21:04:18.929Z,8.50
2019-04-16T21:06:46.254Z,8.50
2019-04-16T21:09:13.458Z,8.50
2019-04-16T21:11:41.769Z,8.40
2019-04-16T21:14:09.240Z,8.30
2019-04-16T21:16:37.085Z,8.30
2019-04-16T21:19:04.489Z,8.20
2019-04-16T21:21:32.056Z,8.20
2019-04-16T21:23:59.113Z,8.10
2019-04-16T21:26:26.319Z,8.00
2019-04-16T21:29:14.407Z,8.00
2019-04-16T21:31:44.825Z,7.90
2019-04-16T21:34:25.073Z,7.90
2019-04-16T21:37:16.020Z,7.80
2019-04-16T21:39:51.296Z,7.80
2019-04-16T21:42:18.612Z,7.80
2019-04-16T21:44:45.900Z,8.10
2019-04-16T21:47:13.258Z,8.50
2019-04-16T21:49:44.837Z,9.00
2019-04-16T21:52:09.301Z,9.30
2019-04-16T21:54:37.498Z,9.70
2019-04-16T21:57:04.746Z,9.80
2019-04-16T21:59:31.895Z,10.00
2019-04-16T22:01:59.233Z,10.10
2019-04-16T22:04:26.428Z,10.20
2019-04-16T22:06:53.672Z,10.10
2019-04-16T22:09:20.706Z,10.20
2019-04-16T22:11:47.845Z,10.30
2019-04-16T22:14:14.895Z,10.30
2019-04-16T22:16:41.823Z,10.30
2019-04-16T22:19:10.858Z,10.30
2019-04-16T22:21:39.658Z,10.30
2019-04-16T22:24:06.741Z,10.30
2019-04-16T22:26:35.177Z,10.30
2019-04-16T22:29:03.246Z,10.20
2019-04-16T22:31:30.469Z,10.10
2019-04-16T22:33:57.497Z,10.10
2019-04-16T22:36:24.633Z,10.20
2019-04-16T22:38:57.817Z,10.20
2019-04-16T22:41:44.401Z,10.20
2019-04-16T22:44:36.861Z,10.20
2019-04-16T22:47:10.022Z,10.20
2019-04-16T22:49:37.067Z,10.30
2019-04-16T22:52:04.404Z,10.30
2019-04-16T22:54:31.374Z,10.30
2019-04-16T22:57:02.804Z,10.30
2019-04-16T22:59:30.213Z,10.30
2019-04-16T23:01:57.498Z,10.20
2019-04-16T23:04:26.084Z,10.20
2019-04-16T23:06:53.744Z,10.10
2019-04-16T23:09:22.787Z,10.10
2019-04-16T23:11:52.737Z,10.00
2019-04-16T23:14:18.915Z,10.00
2019-04-16T23:16:46.062Z,10.00
2019-04-16T23:19:13.099Z,10.00
2019-04-16T23:21:42.556Z,10.00
2019-04-16T23:24:09.110Z,10.00
2019-04-16T23:26:36.274Z,9.90
2019-04-16T23:29:03.324Z,9.90
2019-04-16T23:31:30.459Z,9.80
2019-04-16T23:33:57.655Z,9.60
2019-04-16T23:36:24.577Z,9.60
2019-04-16T23:38:51.519Z,9.40
2019-04-16T23:41:18.567Z,9.30
2019-04-16T23:43:53.489Z,9.20
2019-04-16T23:46:51.374Z,8.80
2019-04-16T23:49:43.843Z,8.60
2019-04-16T23:52:22.177Z,8.40
2019-04-16T23:55:01.423Z,8.20
2019-04-16T23:57:41.278Z,8.10
